Time;durP1;ratioP1;P1;durP2;ratioP2;P2;SDS_P1;SDS_P2;PMS_P1;PMS_P2;Temp;Humidity;BMP_temperature;BMP_pressure;BME280_temperature;BME280_humidity;BME280_pressure;Samples;Min_cycle;Max_cycle;Signal;HPM_P1;HPM_P2
2023/03/24 00:01:01;;;;;;;2.20;2.00;;;;;;;;;;5077427;28;20219;-94
2023/03/24 00:03:29;;;;;;;3.63;2.23;;;;;;;;;;5080647;28;20203;-94
2023/03/24 00:06:00;;;;;;;2.42;2.20;;;;;;;;;;5072389;28;20198;-94
2023/03/24 00:08:30;;;;;;;2.30;2.10;;;;;;;;;;5078167;28;20264;-95
2023/03/24 00:11:00;;;;;;;5.10;2.40;;;;;;;;;;5065232;28;20230;-94
2023/03/24 00:13:27;;;;;;;2.73;2.20;;;;;;;;;;5070417;28;20269;-94
2023/03/24 00:15:55;;;;;;;4.03;2.60;;;;;;;;;;5069288;28;20226;-95
2023/03/24 00:18:24;;;;;;;2.97;2.47;;;;;;;;;;5067420;28;20226;-95
2023/03/24 00:20:57;;;;;;;2.67;2.47;;;;;;;;;;5069621;28;20206;-94
2023/03/24 00:23:24;;;;;;;2.70;2.50;;;;;;;;;;5075739;28;20203;-95
2023/03/24 00:26:02;;;;;;;7.53;2.97;;;;;;;;;;5070594;28;20213;-95
2023/03/24 00:28:30;;;;;;;3.20;2.77;;;;;;;;;;5072833;28;20202;-95
2023/03/24 00:30:58;;;;;;;2.63;2.42;;;;;;;;;;5072811;28;20210;-94
2023/03/24 00:33:25;;;;;;;4.53;2.77;;;;;;;;;;5070695;28;20207;-95
2023/03/24 00:35:52;;;;;;;3.13;2.80;;;;;;;;;;5076717;28;20202;-95
2023/03/24 00:38:20;;;;;;;4.50;3.05;;;;;;;;;;5066039;28;20214;-94
2023/03/24 00:40:49;;;;;;;4.03;3.40;;;;;;;;;;5070461;28;20207;-94
2023/03/24 00:43:18;;;;;;;3.73;3.43;;;;;;;;;;5065728;28;20198;-95
2023/03/24 00:45:46;;;;;;;3.92;3.63;;;;;;;;;;5085593;28;20194;-95
2023/03/24 00:48:13;;;;;;;4.50;4.00;;;;;;;;;;5075722;28;20199;-95
2023/03/24 00:50:45;;;;;;;5.50;4.95;;;;;;;;;;5063237;28;20255;-95
2023/03/24 00:53:14;;;;;;;5.57;5.07;;;;;;;;;;5056771;28;20207;-94
2023/03/24 00:55:45;;;;;;;4.93;4.40;;;;;;;;;;5071495;28;20206;-94
2023/03/24 00:58:17;;;;;;;7.20;5.40;;;;;;;;;;5071180;28;20203;-94
2023/03/24 01:00:46;;;;;;;5.17;4.60;;;;;;;;;;5064456;28;20210;-95
2023/03/24 01:03:13;;;;;;;5.60;4.63;;;;;;;;;;5060346;28;20235;-95
2023/03/24 01:05:41;;;;;;;6.47;5.87;;;;;;;;;;5063398;28;20207;-95
2023/03/24 01:08:09;;;;;;;7.63;5.30;;;;;;;;;;5061415;28;20218;-95
2023/03/24 01:10:41;;;;;;;7.10;6.13;;;;;;;;;;5072931;28;20261;-95
2023/03/24 01:13:09;;;;;;;6.30;5.70;;;;;;;;;;5079826;28;20284;-95
2023/03/24 01:15:37;;;;;;;6.77;6.17;;;;;;;;;;5076271;28;20207;-95
2023/03/24 01:18:08;;;;;;;8.37;6.30;;;;;;;;;;5072371;28;20240;-95
2023/03/24 01:20:36;;;;;;;6.47;5.77;;;;;;;;;;5074600;28;20207;-94
2023/03/24 01:23:05;;;;;;;6.60;6.00;;;;;;;;;;5075996;28;20229;-87
2023/03/24 01:25:32;;;;;;;8.07;6.70;;;;;;;;;;5066189;28;20290;-88
2023/03/24 01:28:00;;;;;;;7.93;6.70;;;;;;;;;;5058912;28;20276;-88
2023/03/24 01:30:29;;;;;;;7.57;6.75;;;;;;;;;;5074907;28;20297;-87
2023/03/24 01:32:56;;;;;;;7.15;6.47;;;;;;;;;;5073286;28;20195;-88
2023/03/24 01:35:26;;;;;;;7.50;5.93;;;;;;;;;;5074102;28;20207;-88
2023/03/24 01:37:53;;;;;;;7.57;6.80;;;;;;;;;;5071193;28;20210;-88
2023/03/24 01:40:22;;;;;;;7.40;6.47;;;;;;;;;;5069860;28;20203;-88
2023/03/24 01:42:50;;;;;;;8.50;6.47;;;;;;;;;;5071566;28;20222;-88
2023/03/24 01:45:35;;;;;;;8.80;6.68;;;;;;;;;;5071075;28;20253;-88
2023/03/24 01:48:03;;;;;;;8.15;5.88;;;;;;;;;;5069320;28;20214;-88
2023/03/24 01:50:32;;;;;;;7.47;6.78;;;;;;;;;;5070902;28;20202;-87
2023/03/24 01:53:01;;;;;;;8.25;6.90;;;;;;;;;;5074515;28;20286;-88
2023/03/24 01:55:29;;;;;;;6.80;6.07;;;;;;;;;;5082553;28;20202;-88
2023/03/24 01:57:59;;;;;;;9.13;6.53;;;;;;;;;;5075500;28;20206;-88
2023/03/24 02:00:26;;;;;;;7.73;7.03;;;;;;;;;;5058651;28;20207;-95
2023/03/24 02:02:57;;;;;;;7.67;6.67;;;;;;;;;;5072997;28;20223;-94
2023/03/24 02:05:26;;;;;;;9.57;7.10;;;;;;;;;;5073613;28;20230;-95
2023/03/24 02:08:02;;;;;;;7.22;6.45;;;;;;;;;;5075046;28;20211;-95
2023/03/24 02:10:31;;;;;;;8.93;7.27;;;;;;;;;;5072091;28;20221;-95
2023/03/24 02:12:58;;;;;;;7.47;6.77;;;;;;;;;;5074155;28;20199;-95
2023/03/24 02:15:28;;;;;;;9.88;7.30;;;;;;;;;;5071938;28;20215;-96
2023/03/24 02:17:59;;;;;;;8.77;6.97;;;;;;;;;;5073398;28;20199;-95
2023/03/24 02:20:41;;;;;;;7.80;7.00;;;;;;;;;;5076005;28;20211;-95
2023/03/24 02:23:21;;;;;;;8.32;7.28;;;;;;;;;;5074580;28;20218;-95
2023/03/24 02:26:09;;;;;;;7.73;7.03;;;;;;;;;;5073065;28;20207;-95
2023/03/24 02:28:42;;;;;;;8.33;7.30;;;;;;;;;;5080335;28;20210;-95
2023/03/24 02:31:16;;;;;;;10.63;7.07;;;;;;;;;;5070681;28;20211;-95
2023/03/24 02:33:54;;;;;;;9.43;6.80;;;;;;;;;;5066874;28;20264;-95
2023/03/24 02:36:35;;;;;;;7.63;6.93;;;;;;;;;;5065746;28;20205;-95
2023/03/24 02:39:25;;;;;;;8.47;7.57;;;;;;;;;;5071588;28;20210;-95
2023/03/24 02:41:56;;;;;;;8.50;7.10;;;;;;;;;;5073694;28;20222;-95
2023/03/24 02:44:27;;;;;;;7.00;6.30;;;;;;;;;;5072722;28;20213;-95
2023/03/24 02:46:56;;;;;;;7.40;6.73;;;;;;;;;;5069179;28;20210;-95
2023/03/24 02:49:28;;;;;;;8.60;7.80;;;;;;;;;;5054924;28;20206;-95
2023/03/24 02:51:58;;;;;;;7.47;6.78;;;;;;;;;;5079457;28;20202;-95
2023/03/24 02:54:30;;;;;;;8.20;6.78;;;;;;;;;;5073248;28;20221;-94
2023/03/24 02:56:59;;;;;;;7.50;6.80;;;;;;;;;;5062349;28;20210;-95
2023/03/24 02:59:31;;;;;;;6.55;5.95;;;;;;;;;;5060458;28;20199;-95
2023/03/24 03:02:01;;;;;;;6.70;6.10;;;;;;;;;;5057192;28;20222;-95
2023/03/24 03:04:32;;;;;;;7.27;6.57;;;;;;;;;;5072708;28;20244;-95
2023/03/24 03:07:00;;;;;;;6.97;6.27;;;;;;;;;;5066933;28;20212;-95
2023/03/24 03:09:29;;;;;;;7.00;6.30;;;;;;;;;;5074107;28;20206;-95
2023/03/24 03:11:58;;;;;;;6.93;6.30;;;;;;;;;;5067532;28;20208;-95
2023/03/24 03:14:28;;;;;;;8.97;6.70;;;;;;;;;;5072632;28;20210;-95
2023/03/24 03:17:00;;;;;;;7.60;6.83;;;;;;;;;;5059700;28;20203;-95
2023/03/24 03:19:30;;;;;;;7.43;6.73;;;;;;;;;;5061725;28;20199;-96
2023/03/24 03:21:59;;;;;;;7.43;6.20;;;;;;;;;;5074088;28;20276;-95
2023/03/24 03:24:28;;;;;;;7.23;6.10;;;;;;;;;;5067676;28;20211;-94
2023/03/24 03:26:59;;;;;;;6.47;5.87;;;;;;;;;;5082004;28;20203;-95
2023/03/24 03:29:28;;;;;;;8.57;6.70;;;;;;;;;;5073299;28;20218;-95
2023/03/24 03:31:58;;;;;;;6.37;5.60;;;;;;;;;;5073881;28;20215;-94
2023/03/24 03:34:31;;;;;;;6.20;5.67;;;;;;;;;;5074161;28;20211;-94
2023/03/24 03:37:00;;;;;;;5.83;5.30;;;;;;;;;;5064942;28;20208;-94
2023/03/24 03:39:29;;;;;;;6.70;5.47;;;;;;;;;;5052464;28;20207;-94
2023/03/24 03:41:58;;;;;;;5.63;4.63;;;;;;;;;;5064474;28;20219;-87
2023/03/24 03:44:26;;;;;;;5.00;4.60;;;;;;;;;;5061433;28;20207;-86
2023/03/24 03:46:53;;;;;;;5.23;4.50;;;;;;;;;;5072712;28;20210;-87
2023/03/24 03:49:21;;;;;;;5.17;4.67;;;;;;;;;;5068479;28;20207;-87
2023/03/24 03:51:49;;;;;;;4.90;4.40;;;;;;;;;;5069737;28;20248;-86
2023/03/24 03:54:17;;;;;;;5.13;4.27;;;;;;;;;;5071026;28;20207;-87
2023/03/24 03:56:45;;;;;;;6.07;4.40;;;;;;;;;;5078259;28;20211;-87
2023/03/24 03:59:25;;;;;;;3.70;3.40;;;;;;;;;;5074694;28;20210;-87
2023/03/24 04:01:52;;;;;;;3.67;3.38;;;;;;;;;;5069516;28;20205;-86
2023/03/24 04:04:28;;;;;;;3.70;3.37;;;;;;;;;;5072789;28;20206;-86
2023/03/24 04:07:06;;;;;;;4.70;3.83;;;;;;;;;;5071451;28;20230;-87
2023/03/24 04:09:37;;;;;;;4.40;3.17;;;;;;;;;;5071856;28;20210;-87
2023/03/24 04:12:20;;;;;;;4.53;3.00;;;;;;;;;;5066364;28;20207;-86
2023/03/24 04:15:04;;;;;;;3.40;3.10;;;;;;;;;;5068646;28;20199;-86
2023/03/24 04:17:41;;;;;;;3.38;3.08;;;;;;;;;;5063608;28;20211;-86
2023/03/24 04:20:13;;;;;;;3.17;2.87;;;;;;;;;;5061759;28;20202;-86
2023/03/24 04:22:44;;;;;;;3.28;2.97;;;;;;;;;;5058451;28;20226;-86
2023/03/24 04:25:14;;;;;;;3.53;3.23;;;;;;;;;;5063564;28;20199;-86
2023/03/24 04:27:46;;;;;;;3.27;2.97;;;;;;;;;;5068124;28;20261;-87
2023/03/24 04:30:21;;;;;;;3.13;2.83;;;;;;;;;;5070002;28;20215;-87
2023/03/24 04:32:51;;;;;;;4.10;2.90;;;;;;;;;;5061758;28;20206;-86
2023/03/24 04:35:25;;;;;;;3.60;2.90;;;;;;;;;;5060625;28;20204;-87
2023/03/24 04:37:53;;;;;;;4.63;2.75;;;;;;;;;;5068737;28;20214;-86
2023/03/24 04:40:22;;;;;;;2.77;2.57;;;;;;;;;;5064872;28;20211;-86
2023/03/24 04:42:52;;;;;;;3.07;2.80;;;;;;;;;;5068194;28;20298;-86
2023/03/24 04:45:24;;;;;;;3.75;2.30;;;;;;;;;;5060358;28;20210;-86
2023/03/24 04:47:53;;;;;;;2.63;2.43;;;;;;;;;;5067240;28;20213;-86
2023/03/24 04:50:29;;;;;;;2.63;2.43;;;;;;;;;;5058649;28;20278;-86
2023/03/24 04:52:56;;;;;;;2.70;2.50;;;;;;;;;;5073370;28;20203;-87
2023/03/24 04:55:33;;;;;;;3.20;2.70;;;;;;;;;;5073474;28;20297;-86
2023/03/24 04:58:00;;;;;;;2.53;2.20;;;;;;;;;;5068691;28;20298;-86
2023/03/24 05:00:30;;;;;;;2.20;2.00;;;;;;;;;;5064110;28;20343;-86
2023/03/24 05:02:58;;;;;;;2.33;2.20;;;;;;;;;;5068280;28;20223;-86
2023/03/24 05:05:25;;;;;;;2.70;2.50;;;;;;;;;;5077532;28;20286;-86
2023/03/24 05:07:52;;;;;;;2.33;2.13;;;;;;;;;;5069176;28;20223;-87
2023/03/24 05:10:20;;;;;;;2.47;2.20;;;;;;;;;;5069051;28;20233;-86
2023/03/24 05:12:47;;;;;;;2.37;2.10;;;;;;;;;;5073095;28;20203;-87
2023/03/24 05:15:14;;;;;;;1.90;1.80;;;;;;;;;;5073082;28;20230;-86
2023/03/24 05:17:43;;;;;;;2.20;2.00;;;;;;;;;;5063531;28;20253;-86
2023/03/24 05:20:11;;;;;;;2.33;2.00;;;;;;;;;;5069026;28;20241;-86
2023/03/24 05:22:38;;;;;;;1.93;1.80;;;;;;;;;;5069012;28;20230;-86
2023/03/24 05:25:06;;;;;;;3.17;2.97;;;;;;;;;;5073745;28;20221;-86
2023/03/24 05:27:33;;;;;;;2.10;1.80;;;;;;;;;;5070796;28;20261;-86
2023/03/24 05:30:00;;;;;;;1.73;1.63;;;;;;;;;;5074609;28;20217;-87
2023/03/24 05:32:28;;;;;;;2.27;1.50;;;;;;;;;;5064143;28;20277;-86
2023/03/24 05:34:56;;;;;;;1.70;1.60;;;;;;;;;;5070533;28;20211;-86
2023/03/24 05:37:23;;;;;;;1.70;1.60;;;;;;;;;;5073305;28;20238;-86
2023/03/24 05:39:51;;;;;;;2.77;1.90;;;;;;;;;;5072404;28;20231;-86
2023/03/24 05:42:18;;;;;;;1.90;1.80;;;;;;;;;;5076808;28;20203;-86
2023/03/24 05:44:45;;;;;;;2.17;1.90;;;;;;;;;;5058549;28;20234;-86
2023/03/24 05:47:14;;;;;;;1.52;1.42;;;;;;;;;;5071268;28;20237;-86
2023/03/24 05:49:42;;;;;;;1.97;1.63;;;;;;;;;;5058241;28;20211;-86
2023/03/24 05:52:11;;;;;;;1.60;1.50;;;;;;;;;;5073472;28;20334;-86
2023/03/24 05:54:38;;;;;;;1.65;1.55;;;;;;;;;;5075151;28;20203;-86
2023/03/24 05:57:07;;;;;;;1.73;1.60;;;;;;;;;;5073248;28;20215;-86
2023/03/24 05:59:34;;;;;;;1.50;1.40;;;;;;;;;;5072255;28;20217;-87
2023/03/24 06:02:01;;;;;;;1.50;1.40;;;;;;;;;;5073965;28;20213;-87
2023/03/24 06:04:29;;;;;;;2.80;1.40;;;;;;;;;;5067040;28;20242;-86
2023/03/24 06:06:57;;;;;;;1.53;1.43;;;;;;;;;;5068219;28;20202;-86
2023/03/24 06:09:28;;;;;;;1.77;1.50;;;;;;;;;;5067498;28;20203;-86
2023/03/24 06:11:55;;;;;;;1.43;1.40;;;;;;;;;;5078918;28;20215;-87
2023/03/24 06:14:22;;;;;;;1.47;1.30;;;;;;;;;;5074999;28;20205;-86
2023/03/24 06:16:49;;;;;;;1.65;1.55;;;;;;;;;;5069853;28;20290;-86
2023/03/24 06:19:17;;;;;;;1.55;1.42;;;;;;;;;;5074655;28;20206;-87
2023/03/24 06:21:49;;;;;;;1.37;1.27;;;;;;;;;;5074769;28;20214;-87
2023/03/24 06:24:16;;;;;;;3.63;1.65;;;;;;;;;;5063944;28;20223;-87
2023/03/24 06:26:48;;;;;;;1.90;1.60;;;;;;;;;;5079415;28;20290;-87
2023/03/24 06:29:17;;;;;;;1.70;1.48;;;;;;;;;;5063388;28;20277;-87
2023/03/24 06:31:44;;;;;;;1.70;1.60;;;;;;;;;;5072336;28;20256;-86
2023/03/24 06:34:11;;;;;;;2.00;1.50;;;;;;;;;;5073366;28;20210;-86
2023/03/24 06:36:39;;;;;;;2.00;1.90;;;;;;;;;;5067942;28;20214;-86
2023/03/24 06:39:06;;;;;;;3.20;1.80;;;;;;;;;;5066930;28;20207;-86
2023/03/24 06:41:33;;;;;;;1.92;1.80;;;;;;;;;;5068575;28;20209;-86
2023/03/24 06:44:08;;;;;;;2.53;1.70;;;;;;;;;;5051868;28;20222;-86
2023/03/24 06:46:39;;;;;;;1.55;1.38;;;;;;;;;;5062835;28;20206;-87
2023/03/24 06:52:04;;;;;;;1.30;1.20;;;;;;;;;;5057437;28;20716;-87
2023/03/24 06:54:36;;;;;;;1.75;1.52;;;;;;;;;;5067661;28;20287;-87
2023/03/24 06:57:15;;;;;;;1.50;1.40;;;;;;;;;;5067935;28;20199;-86
2023/03/24 06:59:50;;;;;;;1.25;1.17;;;;;;;;;;5070279;28;20276;-86
2023/03/24 07:02:33;;;;;;;1.90;1.27;;;;;;;;;;5059374;28;20207;-86
2023/03/24 07:05:04;;;;;;;2.35;1.70;;;;;;;;;;5072417;28;20206;-86
2023/03/24 07:07:41;;;;;;;1.40;1.30;;;;;;;;;;5072624;28;20207;-86
2023/03/24 07:19:27;;;;;;;1.38;1.27;;;;;;;;;;5068754;28;20206;-87
2023/03/24 07:21:55;;;;;;;1.35;1.25;;;;;;;;;;5057155;28;20302;-87
2023/03/24 07:24:40;;;;;;;1.90;1.10;;;;;;;;;;5069290;28;20214;-86
2023/03/24 07:27:12;;;;;;;1.60;1.10;;;;;;;;;;5061518;28;20234;-86
2023/03/24 07:29:49;;;;;;;1.10;1.10;;;;;;;;;;5077632;28;20214;-86
2023/03/24 07:32:19;;;;;;;1.20;1.10;;;;;;;;;;5073440;28;20217;-86
2023/03/24 07:34:53;;;;;;;1.02;1.00;;;;;;;;;;5066005;28;20203;-86
2023/03/24 07:37:35;;;;;;;2.00;0.90;;;;;;;;;;5068698;28;20199;-86
2023/03/24 07:40:13;;;;;;;3.15;1.10;;;;;;;;;;5069738;28;20211;-85
2023/03/24 07:42:48;;;;;;;1.33;1.10;;;;;;;;;;5076360;28;20206;-86
2023/03/24 07:45:20;;;;;;;5.15;1.20;;;;;;;;;;5062815;28;20230;-86
2023/03/24 07:47:52;;;;;;;0.90;0.85;;;;;;;;;;5056408;28;20195;-87
2023/03/24 07:50:28;;;;;;;3.03;1.23;;;;;;;;;;5071535;28;20215;-87
2023/03/24 07:53:04;;;;;;;1.88;1.00;;;;;;;;;;5071043;28;20204;-86
2023/03/24 07:55:37;;;;;;;1.15;0.80;;;;;;;;;;5067332;28;20202;-87
2023/03/24 07:58:05;;;;;;;1.33;0.80;;;;;;;;;;5065773;28;20202;-87
2023/03/24 08:00:40;;;;;;;1.23;1.00;;;;;;;;;;5071604;28;20210;-86
2023/03/24 08:03:12;;;;;;;2.53;1.10;;;;;;;;;;5073741;28;20294;-86
2023/03/24 08:05:58;;;;;;;1.43;1.00;;;;;;;;;;5066991;28;20302;-87
2023/03/24 08:08:28;;;;;;;1.77;0.80;;;;;;;;;;5066747;28;20210;-86
2023/03/24 08:10:56;;;;;;;2.67;1.10;;;;;;;;;;5055883;28;20290;-87
2023/03/24 08:13:25;;;;;;;2.70;1.20;;;;;;;;;;5063532;28;20209;-86
2023/03/24 08:15:53;;;;;;;1.33;1.10;;;;;;;;;;5071990;28;20206;-86
2023/03/24 08:18:23;;;;;;;2.97;1.57;;;;;;;;;;5071426;28;20198;-86
2023/03/24 08:20:53;;;;;;;1.67;1.07;;;;;;;;;;5061501;28;20209;-87
2023/03/24 08:23:22;;;;;;;3.03;1.10;;;;;;;;;;5053720;28;20298;-86
2023/03/24 08:25:51;;;;;;;1.57;1.10;;;;;;;;;;5067561;28;20210;-86
2023/03/24 08:28:24;;;;;;;2.03;1.20;;;;;;;;;;5058152;28;20211;-86
2023/03/24 08:30:51;;;;;;;2.70;1.10;;;;;;;;;;5067090;28;20215;-86
2023/03/24 08:33:25;;;;;;;2.43;1.33;;;;;;;;;;5053067;28;20217;-86
2023/03/24 08:35:56;;;;;;;3.73;1.10;;;;;;;;;;5068454;28;20211;-86
2023/03/24 08:38:29;;;;;;;1.83;1.10;;;;;;;;;;5067561;28;20203;-87
2023/03/24 08:41:05;;;;;;;1.13;1.00;;;;;;;;;;5070954;28;20226;-87
2023/03/24 08:43:33;;;;;;;2.47;1.00;;;;;;;;;;5059046;28;20207;-85
2023/03/24 08:46:02;;;;;;;2.77;1.07;;;;;;;;;;5066852;28;20210;-87
2023/03/24 08:48:30;;;;;;;3.27;1.27;;;;;;;;;;5076381;28;20214;-86
2023/03/24 08:51:06;;;;;;;2.50;1.20;;;;;;;;;;5078853;28;20230;-86
2023/03/24 08:53:37;;;;;;;4.80;1.43;;;;;;;;;;5063403;28;20207;-86
2023/03/24 08:56:08;;;;;;;3.10;1.40;;;;;;;;;;5071265;28;20219;-86
2023/03/24 08:58:37;;;;;;;3.50;1.50;;;;;;;;;;5072156;28;20223;-86
2023/03/24 09:01:05;;;;;;;4.43;1.53;;;;;;;;;;5062789;28;20203;-86
2023/03/24 09:03:32;;;;;;;4.20;1.30;;;;;;;;;;5067795;28;20230;-86
2023/03/24 09:06:02;;;;;;;3.40;1.30;;;;;;;;;;5062518;28;20206;-87
2023/03/24 09:08:31;;;;;;;4.57;1.50;;;;;;;;;;5060411;28;20214;-87
2023/03/24 09:10:59;;;;;;;3.90;1.50;;;;;;;;;;5069791;28;20199;-87
2023/03/24 09:13:37;;;;;;;3.50;1.30;;;;;;;;;;5074367;28;20210;-86
2023/03/24 09:16:08;;;;;;;4.83;1.50;;;;;;;;;;5062030;28;20214;-86
2023/03/24 09:18:36;;;;;;;4.60;1.40;;;;;;;;;;5066139;28;20207;-87
2023/03/24 09:21:06;;;;;;;6.70;1.43;;;;;;;;;;5070090;28;20236;-86
2023/03/24 09:23:34;;;;;;;3.07;1.53;;;;;;;;;;5064690;28;20199;-86
2023/03/24 09:26:08;;;;;;;3.47;1.37;;;;;;;;;;5072338;28;20207;-86
2023/03/24 09:28:46;;;;;;;4.47;1.50;;;;;;;;;;5088213;28;20206;-87
2023/03/24 09:31:16;;;;;;;3.77;1.53;;;;;;;;;;5076494;28;20202;-87
2023/03/24 09:33:47;;;;;;;3.97;1.40;;;;;;;;;;5055679;28;20218;-86
2023/03/24 09:36:17;;;;;;;3.90;1.53;;;;;;;;;;5073025;28;20222;-86
2023/03/24 09:38:45;;;;;;;5.00;1.33;;;;;;;;;;5066617;28;20286;-86
2023/03/24 09:41:23;;;;;;;5.57;1.60;;;;;;;;;;5067813;28;20273;-87
2023/03/24 09:43:56;;;;;;;4.70;1.70;;;;;;;;;;5074740;28;20233;-86
2023/03/24 09:46:31;;;;;;;5.27;1.70;;;;;;;;;;5074629;28;20289;-86
2023/03/24 09:49:12;;;;;;;4.73;1.50;;;;;;;;;;5070097;28;20210;-86
2023/03/24 09:51:41;;;;;;;6.43;1.80;;;;;;;;;;5071262;28;20218;-86
2023/03/24 09:54:14;;;;;;;4.07;1.57;;;;;;;;;;5074135;28;20209;-87
2023/03/24 09:56:48;;;;;;;4.93;1.70;;;;;;;;;;5062631;28;20233;-87
2023/03/24 09:59:21;;;;;;;4.13;1.50;;;;;;;;;;5064577;28;20206;-86
2023/03/24 10:01:57;;;;;;;3.80;1.53;;;;;;;;;;5059221;28;20222;-86
2023/03/24 10:04:27;;;;;;;3.33;1.30;;;;;;;;;;5068491;28;20292;-86
2023/03/24 10:06:58;;;;;;;5.23;1.37;;;;;;;;;;5068406;28;20199;-86
2023/03/24 10:09:27;;;;;;;5.70;1.70;;;;;;;;;;5070783;28;20195;-87
2023/03/24 10:12:01;;;;;;;2.80;1.23;;;;;;;;;;5065519;28;20199;-86
2023/03/24 10:17:47;;;;;;;5.53;1.90;;;;;;;;;;5073626;28;20254;-86
2023/03/24 10:20:25;;;;;;;5.00;1.70;;;;;;;;;;5066087;28;20199;-86
2023/03/24 10:22:59;;;;;;;4.13;1.40;;;;;;;;;;5073622;28;20263;-86
2023/03/24 10:25:34;;;;;;;2.10;1.47;;;;;;;;;;5062996;28;20230;-87
2023/03/24 10:28:14;;;;;;;5.38;1.48;;;;;;;;;;5057552;28;20210;-86
2023/03/24 10:30:46;;;;;;;3.25;1.30;;;;;;;;;;5066233;28;20217;-86
2023/03/24 10:33:31;;;;;;;5.88;1.73;;;;;;;;;;5065567;28;20202;-86
2023/03/24 10:38:50;;;;;;;5.13;1.60;;;;;;;;;;5068162;28;20280;-87
2023/03/24 10:41:21;;;;;;;2.08;1.15;;;;;;;;;;5068142;28;20290;-87
2023/03/24 10:43:56;;;;;;;3.00;1.40;;;;;;;;;;5078258;28;20194;-86
2023/03/24 10:46:28;;;;;;;5.10;1.60;;;;;;;;;;5070081;28;20205;-87
2023/03/24 10:49:11;;;;;;;4.53;1.40;;;;;;;;;;5065848;28;20199;-86
2023/03/24 10:51:50;;;;;;;2.97;1.23;;;;;;;;;;5063609;28;20210;-86
2023/03/24 10:54:19;;;;;;;3.58;1.23;;;;;;;;;;5071797;28;20274;-86
2023/03/24 10:56:47;;;;;;;4.95;1.33;;;;;;;;;;5066854;28;20210;-87
2023/03/24 11:02:23;;;;;;;5.43;1.45;;;;;;;;;;5063510;28;20207;-87
2023/03/24 11:04:58;;;;;;;3.55;1.20;;;;;;;;;;5054554;28;20227;-87
2023/03/24 11:07:30;;;;;;;4.15;1.60;;;;;;;;;;5056676;28;20198;-85
2023/03/24 11:09:59;;;;;;;4.30;1.20;;;;;;;;;;5061937;28;20253;-86
2023/03/24 11:12:28;;;;;;;3.17;1.20;;;;;;;;;;5068570;28;20218;-87
2023/03/24 11:15:11;;;;;;;3.80;1.27;;;;;;;;;;5070047;28;20207;-86
2023/03/24 11:17:44;;;;;;;2.78;1.05;;;;;;;;;;5069528;28;20205;-87
2023/03/24 11:20:17;;;;;;;4.00;1.40;;;;;;;;;;5068306;28;20203;-87
2023/03/24 11:22:56;;;;;;;3.65;1.38;;;;;;;;;;5062165;28;20207;-87
2023/03/24 11:25:26;;;;;;;7.30;1.77;;;;;;;;;;5069096;28;20292;-87
2023/03/24 11:27:58;;;;;;;2.90;1.20;;;;;;;;;;5073050;28;20211;-87
2023/03/24 11:30:30;;;;;;;4.05;1.20;;;;;;;;;;5064794;28;20207;-86
2023/03/24 11:32:58;;;;;;;4.95;1.63;;;;;;;;;;5059286;28;20200;-85
2023/03/24 11:35:26;;;;;;;4.22;1.40;;;;;;;;;;5063206;28;20263;-86
2023/03/24 11:37:55;;;;;;;3.92;1.38;;;;;;;;;;5068125;28;20211;-87
2023/03/24 11:40:23;;;;;;;5.63;1.60;;;;;;;;;;5064886;28;20215;-86
2023/03/24 11:42:58;;;;;;;3.95;1.40;;;;;;;;;;5073157;28;20215;-86
2023/03/24 11:45:30;;;;;;;4.30;1.50;;;;;;;;;;5066253;28;20249;-86
2023/03/24 11:48:00;;;;;;;4.70;1.45;;;;;;;;;;5069167;28;20202;-86
2023/03/24 11:50:31;;;;;;;5.78;1.45;;;;;;;;;;5072122;28;20217;-86
2023/03/24 11:53:03;;;;;;;5.72;1.63;;;;;;;;;;5055300;28;20203;-86
2023/03/24 11:55:35;;;;;;;4.93;1.50;;;;;;;;;;5064652;28;20191;-86
2023/03/24 11:58:04;;;;;;;4.57;1.58;;;;;;;;;;5057974;28;20210;-85
2023/03/24 12:00:33;;;;;;;4.05;1.42;;;;;;;;;;5070297;28;20213;-87
2023/03/24 12:03:23;;;;;;;5.68;1.50;;;;;;;;;;5068018;28;20203;-86
2023/03/24 12:05:53;;;;;;;4.68;1.65;;;;;;;;;;5036305;28;20242;-86
2023/03/24 12:08:35;;;;;;;3.45;1.50;;;;;;;;;;5063831;28;20302;-87
2023/03/24 12:11:15;;;;;;;4.25;1.35;;;;;;;;;;5063750;28;20195;-86
2023/03/24 12:13:43;;;;;;;3.38;1.55;;;;;;;;;;5069524;28;20265;-87
2023/03/24 12:16:29;;;;;;;4.35;1.60;;;;;;;;;;5067856;28;20207;-87
2023/03/24 12:19:16;;;;;;;3.42;1.40;;;;;;;;;;5056554;28;20203;-87
2023/03/24 12:21:58;;;;;;;4.57;1.75;;;;;;;;;;5061677;28;20206;-86
2023/03/24 12:24:30;;;;;;;4.40;1.40;;;;;;;;;;5069643;28;20215;-86
2023/03/24 12:27:00;;;;;;;3.40;1.20;;;;;;;;;;5062261;28;20209;-86
2023/03/24 12:29:49;;;;;;;4.10;1.35;;;;;;;;;;5063393;28;20214;-87
2023/03/24 12:32:34;;;;;;;3.15;1.40;;;;;;;;;;5056812;28;20210;-86
2023/03/24 12:35:16;;;;;;;3.45;1.20;;;;;;;;;;5070250;28;20462;-87
2023/03/24 12:37:49;;;;;;;2.42;1.10;;;;;;;;;;5054812;28;20330;-87
2023/03/24 12:40:26;;;;;;;4.25;1.60;;;;;;;;;;5070322;28;20199;-87
2023/03/24 12:42:59;;;;;;;5.47;1.67;;;;;;;;;;5069709;28;20206;-86
2023/03/24 12:45:34;;;;;;;4.82;1.48;;;;;;;;;;5075065;28;20222;-86
2023/03/24 12:48:15;;;;;;;4.97;1.65;;;;;;;;;;5066523;28;20205;-87
2023/03/24 12:50:49;;;;;;;3.28;1.35;;;;;;;;;;5069733;28;20202;-87
2023/03/24 12:53:26;;;;;;;6.07;1.80;;;;;;;;;;5070727;28;20243;-86
2023/03/24 12:56:08;;;;;;;4.10;1.63;;;;;;;;;;5067596;28;20198;-86
2023/03/24 12:58:40;;;;;;;3.53;1.40;;;;;;;;;;5066166;28;20286;-86
2023/03/24 13:01:11;;;;;;;4.40;1.60;;;;;;;;;;5053357;28;20207;-86
2023/03/24 13:03:42;;;;;;;3.65;1.45;;;;;;;;;;5066547;28;20206;-86
2023/03/24 13:06:23;;;;;;;3.92;1.65;;;;;;;;;;5067230;28;20227;-86
2023/03/24 13:08:58;;;;;;;5.40;1.40;;;;;;;;;;5063248;28;20202;-86
2023/03/24 13:11:32;;;;;;;3.50;1.50;;;;;;;;;;5071407;28;20210;-86
2023/03/24 13:14:07;;;;;;;3.53;1.48;;;;;;;;;;5074122;28;20210;-87
2023/03/24 13:16:37;;;;;;;2.40;1.13;;;;;;;;;;5063587;28;20203;-87
2023/03/24 13:19:05;;;;;;;4.63;1.67;;;;;;;;;;5066999;28;20293;-87
2023/03/24 13:21:34;;;;;;;4.50;1.58;;;;;;;;;;5086456;28;20218;-87
2023/03/24 13:24:03;;;;;;;4.78;1.52;;;;;;;;;;5072746;28;20198;-87
2023/03/24 13:26:38;;;;;;;5.30;1.20;;;;;;;;;;5064086;28;20219;-86
2023/03/24 13:29:21;;;;;;;3.97;1.48;;;;;;;;;;5074806;28;20210;-87
2023/03/24 13:31:53;;;;;;;3.70;1.50;;;;;;;;;;5072548;28;20215;-87
2023/03/24 13:34:28;;;;;;;3.75;1.65;;;;;;;;;;5073745;28;20294;-87
2023/03/24 13:36:57;;;;;;;4.15;1.55;;;;;;;;;;5078341;28;20289;-87
2023/03/24 13:39:26;;;;;;;2.95;1.40;;;;;;;;;;5065198;28;20202;-87
2023/03/24 13:42:22;;;;;;;4.55;1.30;;;;;;;;;;5071399;28;20203;-86
2023/03/24 13:44:55;;;;;;;2.13;1.25;;;;;;;;;;5072346;28;20225;-87
2023/03/24 13:47:49;;;;;;;4.20;1.58;;;;;;;;;;5081103;28;20256;-88
2023/03/24 13:50:51;;;;;;;;;;;;;;;;;;;;;
2023/03/24 13:53:39;;;;;;;4.57;1.60;;;;;;;;;;5073522;28;20210;-87
2023/03/24 13:56:14;;;;;;;3.80;1.50;;;;;;;;;;5074565;28;20230;-86
2023/03/24 13:58:53;;;;;;;4.57;1.52;;;;;;;;;;5074626;28;20205;-87
2023/03/24 14:01:39;;;;;;;4.07;1.52;;;;;;;;;;5074317;28;20252;-87
2023/03/24 14:04:40;;;;;;;4.93;1.50;;;;;;;;;;5062598;28;20200;-87
2023/03/24 14:07:39;;;;;;;3.65;1.50;;;;;;;;;;5051109;28;20235;-87
2023/03/24 14:23:25;;;;;;;2.05;0.90;;;;;;;;;;5067365;28;20195;-86
2023/03/24 14:25:57;;;;;;;2.08;0.90;;;;;;;;;;5068002;28;20231;-86
2023/03/24 14:31:25;;;;;;;2.28;0.90;;;;;;;;;;5066644;28;20211;-87
2023/03/24 14:34:36;;;;;;;3.65;1.05;;;;;;;;;;5061349;28;20215;-87
2023/03/24 14:40:00;;;;;;;2.72;1.10;;;;;;;;;;5025062;28;20230;-86
2023/03/24 14:45:59;;;;;;;3.70;1.20;;;;;;;;;;5010383;28;20275;-87
2023/03/24 14:48:40;;;;;;;3.78;1.58;;;;;;;;;;5034369;28;20207;-87
2023/03/24 14:51:25;;;;;;;4.13;1.20;;;;;;;;;;5059556;28;20269;-87
2023/03/24 14:54:03;;;;;;;3.08;1.20;;;;;;;;;;5062271;28;20207;-87
2023/03/24 14:56:39;;;;;;;5.82;1.50;;;;;;;;;;5068557;28;20204;-87
2023/03/24 14:59:20;;;;;;;4.75;1.55;;;;;;;;;;5069597;28;20267;-87
2023/03/24 15:02:16;;;;;;;4.15;1.30;;;;;;;;;;5062600;28;20206;-87
2023/03/24 15:05:05;;;;;;;2.72;1.20;;;;;;;;;;5056012;28;20214;-87
2023/03/24 15:11:14;;;;;;;3.15;1.35;;;;;;;;;;5064367;28;20199;-87
2023/03/24 15:14:12;;;;;;;5.22;1.70;;;;;;;;;;5066385;28;20260;-87
2023/03/24 15:16:55;;;;;;;4.07;1.50;;;;;;;;;;5066904;28;20271;-87
2023/03/24 15:19:25;;;;;;;3.83;1.30;;;;;;;;;;5062525;28;20214;-87
2023/03/24 15:28:31;;;;;;;4.63;1.60;;;;;;;;;;4949937;28;20229;-87
2023/03/24 15:46:23;;;;;;;3.97;1.40;;;;;;;;;;5023889;23;20238;-69
2023/03/24 15:48:50;;;;;;;2.88;1.15;;;;;;;;;;5050930;28;20203;-68
2023/03/24 15:51:17;;;;;;;5.15;1.70;;;;;;;;;;5048990;28;20210;-68
2023/03/24 15:53:47;;;;;;;4.72;1.55;;;;;;;;;;5049211;28;20219;-68
2023/03/24 15:56:19;;;;;;;5.93;1.40;;;;;;;;;;5049204;28;20191;-68
2023/03/24 15:58:48;;;;;;;4.82;1.50;;;;;;;;;;5051907;28;20200;-69
2023/03/24 16:01:17;;;;;;;4.57;1.55;;;;;;;;;;5045262;28;20202;-69
2023/03/24 16:03:47;;;;;;;5.18;1.85;;;;;;;;;;5044287;28;20214;-68
2023/03/24 16:06:15;;;;;;;2.92;1.33;;;;;;;;;;5048196;28;20280;-68
2023/03/24 16:08:44;;;;;;;6.00;1.88;;;;;;;;;;5044179;28;20200;-68
2023/03/24 16:11:12;;;;;;;4.82;1.60;;;;;;;;;;5051486;28;20214;-68
2023/03/24 16:13:40;;;;;;;5.10;1.40;;;;;;;;;;5050847;28;20206;-68
2023/03/24 16:16:11;;;;;;;4.18;1.52;;;;;;;;;;5047813;28;20199;-68
2023/03/24 16:18:39;;;;;;;6.03;1.65;;;;;;;;;;5052067;28;20203;-68
2023/03/24 16:21:14;;;;;;;3.72;1.33;;;;;;;;;;5048446;28;20274;-68
2023/03/24 16:23:42;;;;;;;3.22;1.05;;;;;;;;;;5043996;28;20333;-68